Gainesville, VA

12:21 PM EDT on July 06, 2015 (GMT -0400)
Greenhill Crossing | | Change Station
CLOSE
Current Station
Personal Weather Station
Location: Haymarket, VA
Elevation: 371 ft
Nearby Weather Stations

Elev 371 ft 38.81 °N, 77.63 °W | Updated 8 minutes ago

Overcast
Overcast
79.6 °F
Feels Like 84 °F
N
0.0
Wind Variable Wind from ESE
Gusts 5.0 mph

Today
High -- | Low -- °F
--% Chance of Precip.
Yesterday
High -- | Low -- °F
Precip. -- in
5:51 AM 8:38 PM
Waning Gibbous, 74% visible
Pressure 30.12 in
Visibility 10.0 miles
Clouds Mostly Cloudy 1800 ft
Overcast 3800 ft
Heat Index 84 °F
Dew Point 74 °F
Humidity 84%
Rainfall 0.01 in
Snow Depth Not available.
UV 3 out of 12
Pollen .60 out of 12
Air Quality Not available.
Flu Activity Not available.
METAR KHEF 061545Z 18009KT 10SM BKN018 OVC038 26/22 A3012

More Conditions Fewer Conditions

Pressure 30.12 in
Visibility 10.0 miles
Clouds Mostly Cloudy 1800 ft
Overcast 3800 ft
Heat Index 84 °F
Dew Point 74 °F
Humidity 84%
Rainfall 0.01 in
Snow Depth Not available.
UV 3 out of 12
Pollen .60 out of 12
Air Quality Not available.
Flu Activity Not available.
METAR KHEF 061545Z 18009KT 10SM BKN018 OVC038 26/22 A3012

More Conditions Fewer Conditions

10-Day Weather Forecast

×

Almanac

Astronomy

Jul. 06, 2015 Rise Set
Actual Time
Civil Twilight
Nautical Twilight
Astronomical Twilight
Moon
Length of Visible Light
Length of Day
Tomorrow will be .
, % of the Moon is Illuminated

Today's Extremes

State Highs State Lows

Community

WunderPhotos

Upload Photos

1,835,594 photos uploaded!

WunderBlogs® & News

Nearby

Air Quality

  Air Quality AQ Index Pollutant
Not available.

Snow Depth

Station Depth Elevation

Earthquake Activity

City Distance Mag. Time & Date
Minimum magnitude displayed is 2.5.

Coastal Water Temperatures

Place Temperature

Stations

Nearby Weather Stations

Station Location Temp. Windchill Dew Point Humidity Wind Precip. Elev Updated Type